createdAt,value
2022-11-13T00:02:01.662Z,48.60
2022-11-13T00:05:08.886Z,49.90
2022-11-13T00:08:14.871Z,50.60
2022-11-13T00:11:21.955Z,53.30
2022-11-13T00:14:27.605Z,49.80
2022-11-13T00:17:33.259Z,52.20
2022-11-13T00:20:39.522Z,56.50
2022-11-13T00:26:49.498Z,52.80
2022-11-13T00:29:55.147Z,52.70
2022-11-13T00:33:00.752Z,51.50
2022-11-13T00:36:08.500Z,48.30
2022-11-13T00:39:14.088Z,49.30
2022-11-13T00:42:19.708Z,49.50
2022-11-13T00:45:25.456Z,47.40
2022-11-13T00:48:31.126Z,49.10
2022-11-13T00:51:36.860Z,53.30
2022-11-13T00:54:42.510Z,39.30
2022-11-13T00:57:48.113Z,54.40
2022-11-13T01:00:54.099Z,51.10
2022-11-13T01:03:59.713Z,55.20
2022-11-13T01:07:05.470Z,60.10
2022-11-13T01:10:13.409Z,55.30
2022-11-13T01:13:19.250Z,58.30
2022-11-13T01:16:27.398Z,58.90
2022-11-13T01:19:32.977Z,60.30
2022-11-13T01:22:38.798Z,61.90
2022-11-13T01:25:44.455Z,60.00
2022-11-13T01:28:50.518Z,60.20
2022-11-13T01:31:56.169Z,57.10
2022-11-13T01:35:01.820Z,53.00
2022-11-13T01:38:07.471Z,56.60
2022-11-13T01:41:22.932Z,57.30
2022-11-13T01:47:34.886Z,55.20
2022-11-13T01:50:40.939Z,55.20
2022-11-13T01:53:48.567Z,52.70
2022-11-13T01:56:55.935Z,52.40
2022-11-13T02:00:05.649Z,53.50
2022-11-13T02:03:11.592Z,53.40
2022-11-13T02:06:17.588Z,53.70
2022-11-13T02:09:25.981Z,49.50
2022-11-13T02:12:36.887Z,52.20
2022-11-13T02:15:44.063Z,53.30
2022-11-13T02:18:50.021Z,51.70
2022-11-13T02:22:01.719Z,54.60
2022-11-13T02:25:09.925Z,57.10
2022-11-13T02:28:15.686Z,51.20
2022-11-13T02:31:21.324Z,54.70
2022-11-13T02:34:26.938Z,48.30
2022-11-13T02:37:32.566Z,49.00
2022-11-13T02:40:39.237Z,48.20
2022-11-13T02:43:44.867Z,47.30
2022-11-13T02:46:50.524Z,47.80
2022-11-13T02:49:56.210Z,48.40
2022-11-13T02:53:02.219Z,54.70
2022-11-13T02:56:09.365Z,63.20
2022-11-13T02:59:15.025Z,61.00
2022-11-13T03:02:20.629Z,53.10
2022-11-13T03:05:26.373Z,51.30
2022-11-13T03:08:32.945Z,51.90
2022-11-13T03:11:39.315Z,49.10
2022-11-13T03:14:44.968Z,50.00
2022-11-13T03:17:50.567Z,52.20
2022-11-13T03:20:56.162Z,50.30
2022-11-13T03:24:02.546Z,48.30
2022-11-13T03:27:08.664Z,46.80
2022-11-13T03:30:15.278Z,50.50
2022-11-13T03:33:20.880Z,52.00
2022-11-13T03:36:27.004Z,52.20
2022-11-13T03:39:32.746Z,51.70
2022-11-13T03:42:38.421Z,50.90
2022-11-13T03:45:45.278Z,50.30
2022-11-13T03:48:51.255Z,50.10
2022-11-13T03:51:56.884Z,44.60
2022-11-13T03:55:02.495Z,44.90
2022-11-13T03:58:08.597Z,44.80
2022-11-13T04:01:14.379Z,46.40
2022-11-13T04:04:20.108Z,46.40
2022-11-13T04:07:25.756Z,41.30
2022-11-13T04:10:31.859Z,40.90
2022-11-13T04:13:37.763Z,42.90
2022-11-13T04:16:43.386Z,45.00
2022-11-13T04:19:49.085Z,39.50
2022-11-13T04:22:54.836Z,41.10
2022-11-13T04:26:00.746Z,41.50
2022-11-13T04:29:06.477Z,40.40
2022-11-13T04:32:12.123Z,40.20
2022-11-13T04:35:17.850Z,36.10
2022-11-13T04:38:23.428Z,36.10
2022-11-13T04:41:50.064Z,40.30
2022-11-13T04:44:59.812Z,43.60
2022-11-13T04:48:05.547Z,37.90
2022-11-13T04:51:11.198Z,38.10
2022-11-13T04:54:17.464Z,40.80
2022-11-13T04:57:23.119Z,36.00
2022-11-13T05:00:28.770Z,38.00
2022-11-13T05:03:34.405Z,35.90
2022-11-13T05:06:40.226Z,36.80
2022-11-13T05:09:46.030Z,40.60
2022-11-13T05:12:51.623Z,34.70
2022-11-13T05:16:04.692Z,32.20
2022-11-13T05:19:10.664Z,34.90
2022-11-13T05:22:16.306Z,32.30
2022-11-13T05:25:22.172Z,34.40
2022-11-13T05:28:28.793Z,34.70
2022-11-13T05:31:34.913Z,34.30
2022-11-13T05:34:40.563Z,34.90
2022-11-13T05:37:46.125Z,33.80
2022-11-13T05:40:51.762Z,33.10
2022-11-13T05:43:59.811Z,35.30
2022-11-13T05:47:06.083Z,35.50
2022-11-13T05:50:12.917Z,33.40
2022-11-13T05:53:18.568Z,31.00
2022-11-13T05:56:27.599Z,33.00
2022-11-13T05:59:33.251Z,32.40
2022-11-13T06:02:39.108Z,36.00
2022-11-13T06:05:44.718Z,33.90
2022-11-13T06:08:51.828Z,34.10
2022-11-13T06:11:57.804Z,32.10
2022-11-13T06:15:03.406Z,34.90
2022-11-13T06:18:09.122Z,33.20
2022-11-13T06:21:17.627Z,31.40
2022-11-13T06:24:23.657Z,30.90
2022-11-13T06:27:30.078Z,33.70
2022-11-13T06:30:35.688Z,30.50
2022-11-13T06:33:42.998Z,29.40
2022-11-13T06:36:48.649Z,29.40
2022-11-13T06:39:54.234Z,27.80
2022-11-13T06:42:59.846Z,27.70
2022-11-13T06:46:08.881Z,26.00
2022-11-13T06:49:15.253Z,27.50
2022-11-13T06:55:24.957Z,29.00
2022-11-13T06:58:30.924Z,25.20
2022-11-13T07:01:36.773Z,27.20
2022-11-13T07:04:42.486Z,30.30
2022-11-13T07:07:48.104Z,28.10
2022-11-13T07:10:58.016Z,29.10
2022-11-13T07:14:03.624Z,29.00
2022-11-13T07:17:10.559Z,29.00
2022-11-13T07:20:17.197Z,26.60
2022-11-13T07:26:26.964Z,27.50
2022-11-13T07:29:32.614Z,29.00
2022-11-13T07:32:38.266Z,30.80
2022-11-13T07:35:43.920Z,29.10
2022-11-13T07:38:49.570Z,30.10
2022-11-13T07:41:55.223Z,32.00
2022-11-13T07:45:00.860Z,30.90
2022-11-13T07:48:07.672Z,30.60
2022-11-13T07:51:13.406Z,32.80
2022-11-13T07:54:19.059Z,34.00
2022-11-13T07:57:24.709Z,28.80
2022-11-13T08:00:32.006Z,30.50
2022-11-13T08:03:37.653Z,34.30
2022-11-13T08:06:43.377Z,30.60
2022-11-13T08:09:49.045Z,35.80
2022-11-13T08:13:02.794Z,22.00
2022-11-13T08:16:09.441Z,33.20
2022-11-13T08:19:15.124Z,33.70
2022-11-13T08:22:20.725Z,32.90
2022-11-13T08:25:26.738Z,35.40
2022-11-13T08:28:32.493Z,32.00
2022-11-13T08:31:38.144Z,32.30
2022-11-13T08:34:43.797Z,33.40
2022-11-13T08:37:49.755Z,29.30
2022-11-13T08:40:57.456Z,30.50
2022-11-13T08:44:03.071Z,32.20
2022-11-13T08:47:08.745Z,35.20
2022-11-13T08:50:14.795Z,29.70
2022-11-13T08:53:20.475Z,32.50
2022-11-13T08:56:26.123Z,31.90
2022-11-13T08:59:31.911Z,28.20
2022-11-13T09:02:37.528Z,30.50
2022-11-13T09:05:43.180Z,27.60
2022-11-13T09:08:48.781Z,28.10
2022-11-13T09:11:54.485Z,29.70
2022-11-13T09:15:00.140Z,20.80
2022-11-13T09:18:06.572Z,29.10
2022-11-13T09:21:12.260Z,29.30
2022-11-13T09:24:17.970Z,29.90
2022-11-13T09:27:23.807Z,29.90
2022-11-13T09:30:31.265Z,30.40
2022-11-13T09:33:37.016Z,28.90
2022-11-13T09:36:42.672Z,28.80
2022-11-13T09:39:48.422Z,31.40
2022-11-13T09:42:54.377Z,29.00
2022-11-13T09:46:06.864Z,31.40
2022-11-13T09:49:18.990Z,28.60
2022-11-13T09:52:35.593Z,30.70
2022-11-13T09:55:53.954Z,31.40
2022-11-13T09:59:08.314Z,32.10
2022-11-13T10:02:23.178Z,29.00
2022-11-13T10:05:36.077Z,30.50
2022-11-13T10:08:52.709Z,29.60
2022-11-13T10:12:03.081Z,31.80
2022-11-13T10:15:12.692Z,30.80
2022-11-13T10:18:21.895Z,30.70
2022-11-13T10:21:34.756Z,34.40
2022-11-13T10:24:44.205Z,30.10
2022-11-13T10:27:54.700Z,31.60
2022-11-13T10:31:00.646Z,31.20
2022-11-13T10:34:06.949Z,33.20
2022-11-13T10:40:31.016Z,31.60
2022-11-13T10:43:36.968Z,28.20
2022-11-13T10:46:42.727Z,32.00
2022-11-13T10:49:48.583Z,29.50
2022-11-13T10:52:56.575Z,31.10
2022-11-13T10:56:02.542Z,32.70
2022-11-13T10:59:13.976Z,31.80
2022-11-13T11:02:22.807Z,30.30
2022-11-13T11:05:30.038Z,28.30
2022-11-13T11:08:36.618Z,30.30
2022-11-13T11:12:00.568Z,30.20
2022-11-13T11:15:19.458Z,30.60
2022-11-13T11:18:30.592Z,29.80
2022-11-13T11:21:38.626Z,28.50
2022-11-13T11:24:51.150Z,30.50
2022-11-13T11:28:01.991Z,31.90
2022-11-13T11:31:26.974Z,30.10
2022-11-13T11:34:36.685Z,31.00
2022-11-13T11:37:48.279Z,29.10
2022-11-13T11:40:58.212Z,33.90
2022-11-13T11:44:12.278Z,32.10
2022-11-13T11:47:19.435Z,29.50
2022-11-13T11:50:36.441Z,30.30
2022-11-13T11:53:51.527Z,32.80
2022-11-13T11:57:06.118Z,30.30
2022-11-13T12:00:16.026Z,34.10
2022-11-13T12:03:52.512Z,34.50
2022-11-13T12:07:15.473Z,34.80
2022-11-13T12:10:33.135Z,35.30
2022-11-13T12:13:51.580Z,36.00
2022-11-13T12:17:19.765Z,36.10
2022-11-13T12:20:34.835Z,33.10
2022-11-13T12:23:54.204Z,35.20
2022-11-13T12:27:14.711Z,36.00
2022-11-13T12:30:23.369Z,35.00
2022-11-13T12:33:41.712Z,35.20
2022-11-13T12:36:48.648Z,37.00
2022-11-13T12:39:58.289Z,40.00
2022-11-13T12:43:24.339Z,37.90
2022-11-13T12:46:39.910Z,38.40
2022-11-13T12:49:45.576Z,38.80
2022-11-13T12:53:03.410Z,34.70
2022-11-13T12:56:15.516Z,35.80
2022-11-13T12:59:35.896Z,37.50
2022-11-13T13:02:52.233Z,37.80
2022-11-13T13:06:15.276Z,38.40
2022-11-13T13:09:34.960Z,35.90
2022-11-13T13:12:49.892Z,35.00
2022-11-13T13:15:59.784Z,35.00
2022-11-13T13:19:28.494Z,34.30
2022-11-13T13:22:35.545Z,34.00
2022-11-13T13:25:42.334Z,35.10
2022-11-13T13:28:51.353Z,35.30
2022-11-13T13:32:12.194Z,35.90
2022-11-13T13:35:24.973Z,37.10
2022-11-13T13:38:38.323Z,38.60
2022-11-13T13:41:58.391Z,45.60
2022-11-13T13:45:25.532Z,39.50
2022-11-13T13:48:33.332Z,43.60
2022-11-13T13:51:43.921Z,46.20
2022-11-13T13:54:50.605Z,44.10
2022-11-13T13:58:00.323Z,44.40
2022-11-13T14:01:19.474Z,41.20
2022-11-13T14:04:27.117Z,47.00
2022-11-13T14:07:35.860Z,43.50
2022-11-13T14:10:41.608Z,41.30
2022-11-13T14:13:47.231Z,43.90
2022-11-13T14:16:54.807Z,40.90
2022-11-13T14:20:01.241Z,42.00
2022-11-13T14:23:07.576Z,40.70
2022-11-13T14:26:14.161Z,40.80
2022-11-13T14:29:32.102Z,41.00
2022-11-13T14:32:46.934Z,43.90
2022-11-13T14:35:57.530Z,43.70
2022-11-13T14:39:04.316Z,45.00
2022-11-13T14:42:17.539Z,39.10
2022-11-13T14:45:25.723Z,43.00
2022-11-13T14:48:32.939Z,44.20
2022-11-13T14:51:38.696Z,43.90
2022-11-13T14:55:13.494Z,46.20
2022-11-13T14:58:15.293Z,42.90
2022-11-13T15:01:23.092Z,47.60
2022-11-13T15:04:28.748Z,45.50
2022-11-13T15:07:39.010Z,46.70
2022-11-13T15:10:45.100Z,45.60
2022-11-13T15:13:50.826Z,47.70
2022-11-13T15:16:57.304Z,49.80
2022-11-13T15:20:08.404Z,46.30
2022-11-13T15:23:17.430Z,49.30
2022-11-13T15:26:24.478Z,50.20
2022-11-13T15:29:30.082Z,48.00
2022-11-13T15:32:36.286Z,50.60
2022-11-13T15:38:46.997Z,51.00
2022-11-13T15:41:52.940Z,53.10
2022-11-13T15:44:59.015Z,46.90
2022-11-13T15:48:05.286Z,47.10
2022-11-13T15:54:26.618Z,51.00
2022-11-13T15:57:32.725Z,50.40
2022-11-13T16:00:42.736Z,47.90
2022-11-13T16:03:48.614Z,53.10
2022-11-13T16:06:54.979Z,50.80
2022-11-13T16:10:00.761Z,49.90
2022-11-13T16:13:06.470Z,49.70
2022-11-13T16:16:18.157Z,49.40
2022-11-13T16:19:25.721Z,50.00
2022-11-13T16:22:31.826Z,53.00
2022-11-13T16:25:37.723Z,46.10
2022-11-13T16:32:14.804Z,44.80
2022-11-13T16:35:21.648Z,46.70
2022-11-13T16:38:27.420Z,43.20
2022-11-13T16:41:33.665Z,41.20
2022-11-13T16:47:43.733Z,37.50
2022-11-13T16:50:49.478Z,39.80
2022-11-13T16:53:55.122Z,41.00
2022-11-13T16:57:00.820Z,39.20
2022-11-13T17:00:12.121Z,39.00
2022-11-13T17:03:17.738Z,41.20
2022-11-13T17:06:29.138Z,39.10
2022-11-13T17:09:34.791Z,43.20
2022-11-13T17:12:40.429Z,40.00
2022-11-13T17:15:46.081Z,41.20
2022-11-13T17:18:53.380Z,39.80
2022-11-13T17:21:59.123Z,39.90
2022-11-13T17:25:05.200Z,40.40
2022-11-13T17:28:10.852Z,38.40
2022-11-13T17:31:16.673Z,39.90
2022-11-13T17:34:22.362Z,40.00
2022-11-13T17:37:28.115Z,41.70
2022-11-13T17:40:33.721Z,45.60
2022-11-13T17:43:40.334Z,41.10
2022-11-13T17:46:45.962Z,43.00
2022-11-13T17:49:51.875Z,43.40
2022-11-13T17:52:57.728Z,43.70
2022-11-13T17:56:07.366Z,38.60
2022-11-13T17:59:13.104Z,41.40
2022-11-13T18:02:18.756Z,40.50
2022-11-13T18:05:24.510Z,43.90
2022-11-13T18:08:30.162Z,32.80
2022-11-13T18:11:35.774Z,40.70
2022-11-13T18:14:41.465Z,40.40
2022-11-13T18:17:47.118Z,35.30
2022-11-13T18:20:53.179Z,41.60
2022-11-13T18:24:05.820Z,38.40
2022-11-13T18:27:11.857Z,41.80
2022-11-13T18:30:18.205Z,37.50
2022-11-13T18:33:23.875Z,39.50
2022-11-13T18:36:29.526Z,44.80
2022-11-13T18:39:35.181Z,39.80
2022-11-13T18:42:40.935Z,41.50
2022-11-13T18:45:56.296Z,38.60
2022-11-13T18:49:02.170Z,36.50
2022-11-13T18:52:08.430Z,36.30
2022-11-13T18:55:14.090Z,35.40
2022-11-13T18:58:19.944Z,38.80
2022-11-13T19:01:28.482Z,34.50
2022-11-13T19:04:35.563Z,37.50
2022-11-13T19:07:41.183Z,37.90
2022-11-13T19:10:47.159Z,37.60
2022-11-13T19:13:53.541Z,33.80
2022-11-13T19:16:59.180Z,35.90
2022-11-13T19:20:05.338Z,37.10
2022-11-13T19:23:10.981Z,37.20
2022-11-13T19:26:16.941Z,37.80
2022-11-13T19:29:22.606Z,37.00
2022-11-13T19:32:28.461Z,36.50
2022-11-13T19:35:34.625Z,33.60
2022-11-13T19:38:42.098Z,34.10
2022-11-13T19:41:48.027Z,31.20
2022-11-13T19:44:53.731Z,30.00
2022-11-13T19:47:59.461Z,30.60
2022-11-13T19:51:10.775Z,35.50
2022-11-13T19:54:17.682Z,29.90
2022-11-13T19:57:23.505Z,32.20
2022-11-13T20:00:29.260Z,33.50
2022-11-13T20:03:34.829Z,34.30
2022-11-13T20:06:40.886Z,33.50
2022-11-13T20:09:46.517Z,34.20
2022-11-13T20:12:52.174Z,32.60
2022-11-13T20:15:57.990Z,34.40
2022-11-13T20:19:03.684Z,36.00
2022-11-13T20:22:09.337Z,33.50
2022-11-13T20:25:15.192Z,31.80
2022-11-13T20:28:20.845Z,31.20
2022-11-13T20:31:27.871Z,33.90
2022-11-13T20:34:33.682Z,32.00
2022-11-13T20:37:39.338Z,32.10
2022-11-13T20:40:44.987Z,29.30
2022-11-13T20:43:51.056Z,32.80
2022-11-13T20:46:58.850Z,31.20
2022-11-13T20:50:04.604Z,30.00
2022-11-13T20:53:10.420Z,30.30
2022-11-13T20:56:17.341Z,32.70
2022-11-13T20:59:22.994Z,31.50
2022-11-13T21:02:28.749Z,30.20
2022-11-13T21:05:34.423Z,31.80
2022-11-13T21:08:40.469Z,34.90
2022-11-13T21:11:46.073Z,32.70
2022-11-13T21:14:52.340Z,34.20
2022-11-13T21:21:09.292Z,35.30
2022-11-13T21:24:14.967Z,32.70
2022-11-13T21:27:20.618Z,35.70
2022-11-13T21:30:26.373Z,34.10
2022-11-13T21:33:32.010Z,31.40
2022-11-13T21:36:37.678Z,33.50
2022-11-13T21:39:43.328Z,33.50
2022-11-13T21:42:49.288Z,32.90
2022-11-13T21:45:54.940Z,33.30
2022-11-13T21:49:02.515Z,36.40
2022-11-13T21:52:08.395Z,35.00
2022-11-13T21:55:14.162Z,33.40
2022-11-13T21:58:19.800Z,34.60
2022-11-13T22:01:26.159Z,33.20
2022-11-13T22:04:31.822Z,33.80
2022-11-13T22:07:37.573Z,34.30
2022-11-13T22:10:43.432Z,32.60
2022-11-13T22:13:49.121Z,32.40
2022-11-13T22:16:54.837Z,36.30
2022-11-13T22:20:00.517Z,34.70
2022-11-13T22:23:08.773Z,31.90
2022-11-13T22:26:17.321Z,32.30
2022-11-13T22:29:26.008Z,33.40
2022-11-13T22:32:31.706Z,31.20
2022-11-13T22:35:37.450Z,30.90
2022-11-13T22:38:44.515Z,33.00
2022-11-13T22:41:50.103Z,29.80
2022-11-13T22:44:56.733Z,33.30
2022-11-13T22:48:02.511Z,31.20
2022-11-13T22:51:11.541Z,28.70
2022-11-13T22:54:17.198Z,29.40
2022-11-13T22:57:22.769Z,28.80
2022-11-13T23:00:28.398Z,28.40
2022-11-13T23:03:37.161Z,29.70
2022-11-13T23:06:43.344Z,27.60
2022-11-13T23:09:49.041Z,28.50
2022-11-13T23:12:55.122Z,27.60
2022-11-13T23:16:00.757Z,25.90
2022-11-13T23:19:07.142Z,26.60
2022-11-13T23:22:12.750Z,27.70
2022-11-13T23:25:18.632Z,25.00
2022-11-13T23:28:24.647Z,25.70
2022-11-13T23:31:30.259Z,26.50
2022-11-13T23:34:58.317Z,24.50
2022-11-13T23:38:01.718Z,25.50
2022-11-13T23:41:08.184Z,24.50
2022-11-13T23:44:13.769Z,25.50
2022-11-13T23:47:19.800Z,24.40
2022-11-13T23:50:25.554Z,25.40
2022-11-13T23:53:31.207Z,25.70
2022-11-13T23:56:36.857Z,24.30
2022-11-13T23:59:42.510Z,24.70
